sensor_id;sensor_type;location;lat;lon;timestamp;P1;durP1;ratioP1;P2;durP2;ratioP2
7412;SDS011;3748;48.136;11.538;2023-02-28T00:01:36;5.90;;;3.30;;
7412;SDS011;3748;48.136;11.538;2023-02-28T00:04:03;4.23;;;3.20;;
7412;SDS011;3748;48.136;11.538;2023-02-28T00:06:31;4.43;;;3.13;;
7412;SDS011;3748;48.136;11.538;2023-02-28T00:08:59;5.17;;;3.57;;
7412;SDS011;3748;48.136;11.538;2023-02-28T00:11:26;6.00;;;4.07;;
7412;SDS011;3748;48.136;11.538;2023-02-28T00:13:53;5.17;;;3.97;;
7412;SDS011;3748;48.136;11.538;2023-02-28T00:16:20;4.80;;;3.50;;
7412;SDS011;3748;48.136;11.538;2023-02-28T00:18:47;3.60;;;3.30;;
7412;SDS011;3748;48.136;11.538;2023-02-28T00:21:15;4.17;;;2.97;;
7412;SDS011;3748;48.136;11.538;2023-02-28T00:23:43;5.30;;;3.17;;
7412;SDS011;3748;48.136;11.538;2023-02-28T00:26:11;4.90;;;3.90;;
7412;SDS011;3748;48.136;11.538;2023-02-28T00:28:38;6.50;;;3.37;;
7412;SDS011;3748;48.136;11.538;2023-02-28T00:31:05;4.50;;;4.10;;
7412;SDS011;3748;48.136;11.538;2023-02-28T00:33:32;5.87;;;3.57;;
7412;SDS011;3748;48.136;11.538;2023-02-28T00:36:06;3.80;;;3.40;;
7412;SDS011;3748;48.136;11.538;2023-02-28T00:38:33;3.30;;;3.00;;
7412;SDS011;3748;48.136;11.538;2023-02-28T00:41:02;5.97;;;3.50;;
7412;SDS011;3748;48.136;11.538;2023-02-28T00:43:30;5.00;;;3.13;;
7412;SDS011;3748;48.136;11.538;2023-02-28T00:45:57;5.77;;;4.10;;
7412;SDS011;3748;48.136;11.538;2023-02-28T00:48:24;7.30;;;4.60;;
7412;SDS011;3748;48.136;11.538;2023-02-28T00:50:51;3.80;;;3.50;;
7412;SDS011;3748;48.136;11.538;2023-02-28T00:53:18;3.80;;;3.23;;
7412;SDS011;3748;48.136;11.538;2023-02-28T00:55:45;9.20;;;4.03;;
7412;SDS011;3748;48.136;11.538;2023-02-28T00:58:14;6.17;;;3.70;;
7412;SDS011;3748;48.136;11.538;2023-02-28T01:00:41;6.90;;;4.07;;
7412;SDS011;3748;48.136;11.538;2023-02-28T01:03:08;5.90;;;4.20;;
7412;SDS011;3748;48.136;11.538;2023-02-28T01:05:35;4.30;;;3.63;;
7412;SDS011;3748;48.136;11.538;2023-02-28T01:08:02;8.30;;;4.23;;
7412;SDS011;3748;48.136;11.538;2023-02-28T01:10:29;4.93;;;3.60;;
7412;SDS011;3748;48.136;11.538;2023-02-28T01:12:57;3.00;;;2.73;;
7412;SDS011;3748;48.136;11.538;2023-02-28T01:15:25;4.10;;;3.60;;
7412;SDS011;3748;48.136;11.538;2023-02-28T01:17:52;5.83;;;3.60;;
7412;SDS011;3748;48.136;11.538;2023-02-28T01:20:19;5.43;;;3.90;;
7412;SDS011;3748;48.136;11.538;2023-02-28T01:22:46;4.80;;;3.27;;
7412;SDS011;3748;48.136;11.538;2023-02-28T01:25:14;6.53;;;3.13;;
7412;SDS011;3748;48.136;11.538;2023-02-28T01:27:41;5.90;;;4.10;;
7412;SDS011;3748;48.136;11.538;2023-02-28T01:30:09;5.03;;;3.90;;
7412;SDS011;3748;48.136;11.538;2023-02-28T01:32:37;7.03;;;3.50;;
7412;SDS011;3748;48.136;11.538;2023-02-28T01:35:05;6.30;;;3.90;;
7412;SDS011;3748;48.136;11.538;2023-02-28T01:37:32;8.53;;;4.03;;
7412;SDS011;3748;48.136;11.538;2023-02-28T01:39:59;3.00;;;2.70;;
7412;SDS011;3748;48.136;11.538;2023-02-28T01:42:26;3.30;;;2.90;;
7412;SDS011;3748;48.136;11.538;2023-02-28T01:44:58;3.93;;;3.53;;
7412;SDS011;3748;48.136;11.538;2023-02-28T01:47:25;4.40;;;2.97;;
7412;SDS011;3748;48.136;11.538;2023-02-28T01:49:55;4.97;;;3.40;;
7412;SDS011;3748;48.136;11.538;2023-02-28T01:52:22;3.80;;;3.40;;
7412;SDS011;3748;48.136;11.538;2023-02-28T01:54:50;3.43;;;3.10;;
7412;SDS011;3748;48.136;11.538;2023-02-28T01:57:19;4.90;;;3.77;;
7412;SDS011;3748;48.136;11.538;2023-02-28T01:59:49;10.17;;;3.93;;
7412;SDS011;3748;48.136;11.538;2023-02-28T02:02:19;4.90;;;3.33;;
7412;SDS011;3748;48.136;11.538;2023-02-28T02:04:50;4.70;;;3.70;;
7412;SDS011;3748;48.136;11.538;2023-02-28T02:07:19;3.90;;;3.13;;
7412;SDS011;3748;48.136;11.538;2023-02-28T02:09:47;5.80;;;4.10;;
7412;SDS011;3748;48.136;11.538;2023-02-28T02:12:16;3.60;;;3.30;;
7412;SDS011;3748;48.136;11.538;2023-02-28T02:14:50;4.63;;;3.90;;
7412;SDS011;3748;48.136;11.538;2023-02-28T02:17:25;4.10;;;3.47;;
7412;SDS011;3748;48.136;11.538;2023-02-28T02:20:04;5.07;;;3.50;;
7412;SDS011;3748;48.136;11.538;2023-02-28T02:22:59;6.20;;;4.17;;
7412;SDS011;3748;48.136;11.538;2023-02-28T02:25:31;4.43;;;3.67;;
7412;SDS011;3748;48.136;11.538;2023-02-28T02:28:04;4.33;;;3.30;;
7412;SDS011;3748;48.136;11.538;2023-02-28T02:30:48;4.07;;;3.20;;
7412;SDS011;3748;48.136;11.538;2023-02-28T02:33:29;4.60;;;4.00;;
7412;SDS011;3748;48.136;11.538;2023-02-28T02:36:03;4.27;;;3.30;;
7412;SDS011;3748;48.136;11.538;2023-02-28T02:38:34;6.47;;;3.80;;
7412;SDS011;3748;48.136;11.538;2023-02-28T02:41:04;5.43;;;3.77;;
7412;SDS011;3748;48.136;11.538;2023-02-28T02:43:34;7.10;;;3.77;;
7412;SDS011;3748;48.136;11.538;2023-02-28T02:46:03;8.93;;;4.70;;
7412;SDS011;3748;48.136;11.538;2023-02-28T02:48:32;9.00;;;3.33;;
7412;SDS011;3748;48.136;11.538;2023-02-28T02:51:01;4.53;;;3.70;;
7412;SDS011;3748;48.136;11.538;2023-02-28T02:53:33;3.47;;;2.83;;
7412;SDS011;3748;48.136;11.538;2023-02-28T02:56:01;7.23;;;4.13;;
7412;SDS011;3748;48.136;11.538;2023-02-28T02:58:31;4.60;;;4.20;;
7412;SDS011;3748;48.136;11.538;2023-02-28T03:00:59;4.20;;;3.47;;
7412;SDS011;3748;48.136;11.538;2023-02-28T03:03:27;5.87;;;4.00;;
7412;SDS011;3748;48.136;11.538;2023-02-28T03:05:55;7.47;;;4.23;;
7412;SDS011;3748;48.136;11.538;2023-02-28T03:08:22;6.10;;;3.63;;
7412;SDS011;3748;48.136;11.538;2023-02-28T03:10:51;6.03;;;3.30;;
7412;SDS011;3748;48.136;11.538;2023-02-28T03:13:30;4.30;;;3.87;;
7412;SDS011;3748;48.136;11.538;2023-02-28T03:16:21;5.83;;;3.63;;
7412;SDS011;3748;48.136;11.538;2023-02-28T03:18:51;4.67;;;3.80;;
7412;SDS011;3748;48.136;11.538;2023-02-28T03:21:22;8.80;;;5.10;;
7412;SDS011;3748;48.136;11.538;2023-02-28T03:23:53;5.33;;;3.23;;
7412;SDS011;3748;48.136;11.538;2023-02-28T03:26:24;4.97;;;3.70;;
7412;SDS011;3748;48.136;11.538;2023-02-28T03:28:54;7.00;;;4.27;;
7412;SDS011;3748;48.136;11.538;2023-02-28T03:31:25;5.80;;;4.73;;
7412;SDS011;3748;48.136;11.538;2023-02-28T03:33:55;6.60;;;4.30;;
7412;SDS011;3748;48.136;11.538;2023-02-28T03:36:25;7.50;;;4.90;;
7412;SDS011;3748;48.136;11.538;2023-02-28T03:38:54;5.80;;;4.50;;
7412;SDS011;3748;48.136;11.538;2023-02-28T03:41:25;10.13;;;4.27;;
7412;SDS011;3748;48.136;11.538;2023-02-28T03:43:54;8.17;;;5.70;;
7412;SDS011;3748;48.136;11.538;2023-02-28T03:46:23;7.60;;;5.60;;
7412;SDS011;3748;48.136;11.538;2023-02-28T03:48:51;14.00;;;5.70;;
7412;SDS011;3748;48.136;11.538;2023-02-28T03:51:22;7.00;;;4.80;;
7412;SDS011;3748;48.136;11.538;2023-02-28T03:53:50;6.70;;;4.33;;
7412;SDS011;3748;48.136;11.538;2023-02-28T03:56:18;4.93;;;4.30;;
7412;SDS011;3748;48.136;11.538;2023-02-28T03:58:49;9.07;;;5.80;;
7412;SDS011;3748;48.136;11.538;2023-02-28T04:01:19;5.90;;;4.53;;
7412;SDS011;3748;48.136;11.538;2023-02-28T04:03:47;6.87;;;4.80;;
7412;SDS011;3748;48.136;11.538;2023-02-28T04:06:16;8.67;;;5.43;;
7412;SDS011;3748;48.136;11.538;2023-02-28T04:08:44;5.80;;;4.60;;
7412;SDS011;3748;48.136;11.538;2023-02-28T04:11:14;10.63;;;5.77;;
7412;SDS011;3748;48.136;11.538;2023-02-28T04:13:43;8.50;;;5.43;;
7412;SDS011;3748;48.136;11.538;2023-02-28T04:16:12;6.40;;;5.37;;
7412;SDS011;3748;48.136;11.538;2023-02-28T04:18:39;8.93;;;4.67;;
7412;SDS011;3748;48.136;11.538;2023-02-28T04:21:08;10.10;;;5.37;;
7412;SDS011;3748;48.136;11.538;2023-02-28T04:23:35;14.20;;;6.70;;
7412;SDS011;3748;48.136;11.538;2023-02-28T04:26:02;7.97;;;5.67;;
7412;SDS011;3748;48.136;11.538;2023-02-28T04:28:30;11.20;;;5.67;;
7412;SDS011;3748;48.136;11.538;2023-02-28T04:30:58;10.27;;;5.97;;
7412;SDS011;3748;48.136;11.538;2023-02-28T04:33:26;7.43;;;5.73;;
7412;SDS011;3748;48.136;11.538;2023-02-28T04:36:00;8.93;;;5.73;;
7412;SDS011;3748;48.136;11.538;2023-02-28T04:38:28;7.37;;;5.57;;
7412;SDS011;3748;48.136;11.538;2023-02-28T04:40:56;9.93;;;6.67;;
7412;SDS011;3748;48.136;11.538;2023-02-28T04:43:23;7.87;;;5.33;;
7412;SDS011;3748;48.136;11.538;2023-02-28T04:45:50;9.63;;;6.20;;
7412;SDS011;3748;48.136;11.538;2023-02-28T04:48:17;9.03;;;6.53;;
7412;SDS011;3748;48.136;11.538;2023-02-28T04:50:46;16.17;;;9.27;;
7412;SDS011;3748;48.136;11.538;2023-02-28T04:53:13;9.70;;;6.47;;
7412;SDS011;3748;48.136;11.538;2023-02-28T04:55:40;12.33;;;8.07;;
7412;SDS011;3748;48.136;11.538;2023-02-28T04:58:07;10.87;;;6.30;;
7412;SDS011;3748;48.136;11.538;2023-02-28T05:00:34;14.07;;;8.10;;
7412;SDS011;3748;48.136;11.538;2023-02-28T05:03:01;11.33;;;7.77;;
7412;SDS011;3748;48.136;11.538;2023-02-28T05:05:28;10.03;;;7.67;;
7412;SDS011;3748;48.136;11.538;2023-02-28T05:07:57;10.10;;;5.83;;
7412;SDS011;3748;48.136;11.538;2023-02-28T05:10:24;14.20;;;6.63;;
7412;SDS011;3748;48.136;11.538;2023-02-28T05:12:51;11.33;;;8.67;;
7412;SDS011;3748;48.136;11.538;2023-02-28T05:15:18;15.13;;;8.40;;
7412;SDS011;3748;48.136;11.538;2023-02-28T05:17:45;8.10;;;7.30;;
7412;SDS011;3748;48.136;11.538;2023-02-28T05:20:12;10.40;;;7.00;;
7412;SDS011;3748;48.136;11.538;2023-02-28T05:22:40;12.47;;;6.30;;
7412;SDS011;3748;48.136;11.538;2023-02-28T05:25:09;16.07;;;7.27;;
7412;SDS011;3748;48.136;11.538;2023-02-28T05:27:37;16.20;;;8.80;;
7412;SDS011;3748;48.136;11.538;2023-02-28T05:30:05;12.60;;;7.53;;
7412;SDS011;3748;48.136;11.538;2023-02-28T05:32:35;14.27;;;8.00;;
7412;SDS011;3748;48.136;11.538;2023-02-28T05:35:02;10.40;;;6.77;;
7412;SDS011;3748;48.136;11.538;2023-02-28T05:37:30;11.03;;;8.47;;
7412;SDS011;3748;48.136;11.538;2023-02-28T05:39:57;14.17;;;7.80;;
7412;SDS011;3748;48.136;11.538;2023-02-28T05:42:25;13.37;;;7.67;;
7412;SDS011;3748;48.136;11.538;2023-02-28T05:44:53;13.33;;;8.20;;
7412;SDS011;3748;48.136;11.538;2023-02-28T05:47:20;13.73;;;8.60;;
7412;SDS011;3748;48.136;11.538;2023-02-28T05:49:47;16.83;;;8.37;;
7412;SDS011;3748;48.136;11.538;2023-02-28T05:52:14;13.60;;;8.10;;
7412;SDS011;3748;48.136;11.538;2023-02-28T05:54:41;14.20;;;9.03;;
7412;SDS011;3748;48.136;11.538;2023-02-28T05:57:08;16.97;;;9.47;;
7412;SDS011;3748;48.136;11.538;2023-02-28T05:59:37;13.73;;;9.33;;
7412;SDS011;3748;48.136;11.538;2023-02-28T06:02:05;13.00;;;7.83;;
7412;SDS011;3748;48.136;11.538;2023-02-28T06:04:32;17.53;;;9.60;;
7412;SDS011;3748;48.136;11.538;2023-02-28T06:06:59;14.13;;;9.50;;
7412;SDS011;3748;48.136;11.538;2023-02-28T06:09:26;14.67;;;9.60;;
7412;SDS011;3748;48.136;11.538;2023-02-28T06:11:54;12.40;;;8.37;;
7412;SDS011;3748;48.136;11.538;2023-02-28T06:14:21;13.80;;;8.63;;
7412;SDS011;3748;48.136;11.538;2023-02-28T06:16:49;15.67;;;11.03;;
7412;SDS011;3748;48.136;11.538;2023-02-28T06:19:16;11.40;;;8.80;;
7412;SDS011;3748;48.136;11.538;2023-02-28T06:21:44;14.73;;;9.10;;
7412;SDS011;3748;48.136;11.538;2023-02-28T06:24:11;14.83;;;10.27;;
7412;SDS011;3748;48.136;11.538;2023-02-28T06:26:38;16.50;;;8.67;;
7412;SDS011;3748;48.136;11.538;2023-02-28T06:29:05;14.80;;;7.17;;
7412;SDS011;3748;48.136;11.538;2023-02-28T06:31:33;14.00;;;8.87;;
7412;SDS011;3748;48.136;11.538;2023-02-28T06:34:01;18.97;;;9.77;;
7412;SDS011;3748;48.136;11.538;2023-02-28T06:36:28;17.70;;;8.23;;
7412;SDS011;3748;48.136;11.538;2023-02-28T06:38:56;15.53;;;8.93;;
7412;SDS011;3748;48.136;11.538;2023-02-28T06:41:23;17.73;;;10.67;;
7412;SDS011;3748;48.136;11.538;2023-02-28T06:43:51;17.37;;;9.90;;
7412;SDS011;3748;48.136;11.538;2023-02-28T06:46:18;15.90;;;10.00;;
7412;SDS011;3748;48.136;11.538;2023-02-28T06:48:46;15.83;;;10.50;;
7412;SDS011;3748;48.136;11.538;2023-02-28T06:51:15;16.23;;;9.13;;
7412;SDS011;3748;48.136;11.538;2023-02-28T06:53:43;16.43;;;9.73;;
7412;SDS011;3748;48.136;11.538;2023-02-28T06:56:10;21.47;;;10.27;;
7412;SDS011;3748;48.136;11.538;2023-02-28T06:58:38;20.93;;;11.53;;
7412;SDS011;3748;48.136;11.538;2023-02-28T07:01:05;17.87;;;10.70;;
7412;SDS011;3748;48.136;11.538;2023-02-28T07:03:34;19.13;;;10.60;;
7412;SDS011;3748;48.136;11.538;2023-02-28T07:06:01;16.83;;;10.70;;
7412;SDS011;3748;48.136;11.538;2023-02-28T07:08:30;16.50;;;11.30;;
7412;SDS011;3748;48.136;11.538;2023-02-28T07:10:57;17.10;;;10.70;;
7412;SDS011;3748;48.136;11.538;2023-02-28T07:13:24;20.73;;;12.10;;
7412;SDS011;3748;48.136;11.538;2023-02-28T07:15:56;16.07;;;10.70;;
7412;SDS011;3748;48.136;11.538;2023-02-28T07:18:23;20.50;;;9.60;;
7412;SDS011;3748;48.136;11.538;2023-02-28T07:20:51;17.90;;;10.03;;
7412;SDS011;3748;48.136;11.538;2023-02-28T07:23:18;17.50;;;10.43;;
7412;SDS011;3748;48.136;11.538;2023-02-28T07:25:46;16.37;;;10.60;;
7412;SDS011;3748;48.136;11.538;2023-02-28T07:28:14;19.73;;;10.70;;
7412;SDS011;3748;48.136;11.538;2023-02-28T07:30:41;16.73;;;8.83;;
7412;SDS011;3748;48.136;11.538;2023-02-28T07:33:08;16.53;;;9.10;;
7412;SDS011;3748;48.136;11.538;2023-02-28T07:35:36;20.50;;;11.97;;
7412;SDS011;3748;48.136;11.538;2023-02-28T07:38:03;16.73;;;10.63;;
7412;SDS011;3748;48.136;11.538;2023-02-28T07:40:32;16.80;;;10.70;;
7412;SDS011;3748;48.136;11.538;2023-02-28T07:43:01;20.70;;;10.90;;
7412;SDS011;3748;48.136;11.538;2023-02-28T07:45:28;16.20;;;10.13;;
7412;SDS011;3748;48.136;11.538;2023-02-28T07:47:56;13.07;;;8.77;;
7412;SDS011;3748;48.136;11.538;2023-02-28T07:50:24;19.57;;;12.47;;
7412;SDS011;3748;48.136;11.538;2023-02-28T07:52:52;26.40;;;13.17;;
7412;SDS011;3748;48.136;11.538;2023-02-28T07:55:19;15.10;;;11.30;;
7412;SDS011;3748;48.136;11.538;2023-02-28T07:57:47;15.10;;;9.83;;
7412;SDS011;3748;48.136;11.538;2023-02-28T08:00:15;18.47;;;11.53;;
7412;SDS011;3748;48.136;11.538;2023-02-28T08:02:43;17.80;;;10.77;;
7412;SDS011;3748;48.136;11.538;2023-02-28T08:05:10;14.93;;;9.80;;
7412;SDS011;3748;48.136;11.538;2023-02-28T08:07:37;16.83;;;10.40;;
7412;SDS011;3748;48.136;11.538;2023-02-28T08:10:04;17.97;;;10.13;;
7412;SDS011;3748;48.136;11.538;2023-02-28T08:12:32;15.47;;;10.17;;
7412;SDS011;3748;48.136;11.538;2023-02-28T08:14:59;16.67;;;11.30;;
7412;SDS011;3748;48.136;11.538;2023-02-28T08:17:27;17.63;;;8.70;;
7412;SDS011;3748;48.136;11.538;2023-02-28T08:19:55;19.50;;;11.27;;
7412;SDS011;3748;48.136;11.538;2023-02-28T08:22:22;16.53;;;12.40;;
7412;SDS011;3748;48.136;11.538;2023-02-28T08:24:49;18.83;;;10.20;;
7412;SDS011;3748;48.136;11.538;2023-02-28T08:27:16;17.23;;;10.57;;
7412;SDS011;3748;48.136;11.538;2023-02-28T08:29:43;14.20;;;8.77;;
7412;SDS011;3748;48.136;11.538;2023-02-28T08:32:10;14.90;;;9.37;;
7412;SDS011;3748;48.136;11.538;2023-02-28T08:34:40;16.03;;;10.43;;
7412;SDS011;3748;48.136;11.538;2023-02-28T08:37:07;12.13;;;9.27;;
7412;SDS011;3748;48.136;11.538;2023-02-28T08:39:35;12.47;;;8.20;;
7412;SDS011;3748;48.136;11.538;2023-02-28T08:42:02;18.17;;;9.87;;
7412;SDS011;3748;48.136;11.538;2023-02-28T08:44:30;12.80;;;9.80;;
7412;SDS011;3748;48.136;11.538;2023-02-28T08:46:57;18.53;;;10.30;;
7412;SDS011;3748;48.136;11.538;2023-02-28T08:49:24;16.80;;;10.30;;
7412;SDS011;3748;48.136;11.538;2023-02-28T08:51:52;14.93;;;10.00;;
7412;SDS011;3748;48.136;11.538;2023-02-28T08:54:20;18.63;;;10.73;;
7412;SDS011;3748;48.136;11.538;2023-02-28T08:56:48;16.93;;;10.67;;
7412;SDS011;3748;48.136;11.538;2023-02-28T08:59:15;18.70;;;11.70;;
7412;SDS011;3748;48.136;11.538;2023-02-28T09:01:42;19.03;;;11.20;;
7412;SDS011;3748;48.136;11.538;2023-02-28T09:04:10;21.20;;;12.10;;
7412;SDS011;3748;48.136;11.538;2023-02-28T09:06:37;16.37;;;11.40;;
7412;SDS011;3748;48.136;11.538;2023-02-28T09:09:06;21.03;;;11.47;;
7412;SDS011;3748;48.136;11.538;2023-02-28T09:11:34;18.67;;;11.00;;
7412;SDS011;3748;48.136;11.538;2023-02-28T09:14:02;16.60;;;10.73;;
7412;SDS011;3748;48.136;11.538;2023-02-28T09:16:29;22.03;;;11.53;;
7412;SDS011;3748;48.136;11.538;2023-02-28T09:18:57;19.73;;;10.57;;
7412;SDS011;3748;48.136;11.538;2023-02-28T09:21:24;15.43;;;10.30;;
7412;SDS011;3748;48.136;11.538;2023-02-28T09:23:51;16.87;;;11.27;;
7412;SDS011;3748;48.136;11.538;2023-02-28T09:26:21;23.03;;;12.17;;
7412;SDS011;3748;48.136;11.538;2023-02-28T09:28:48;22.33;;;12.47;;
7412;SDS011;3748;48.136;11.538;2023-02-28T09:31:16;18.47;;;11.93;;
7412;SDS011;3748;48.136;11.538;2023-02-28T09:33:45;18.50;;;13.30;;
7412;SDS011;3748;48.136;11.538;2023-02-28T09:36:12;18.70;;;11.90;;
7412;SDS011;3748;48.136;11.538;2023-02-28T09:38:40;23.63;;;12.53;;
7412;SDS011;3748;48.136;11.538;2023-02-28T09:41:10;19.17;;;12.77;;
7412;SDS011;3748;48.136;11.538;2023-02-28T09:43:40;17.90;;;11.80;;
7412;SDS011;3748;48.136;11.538;2023-02-28T09:46:11;19.37;;;14.63;;
7412;SDS011;3748;48.136;11.538;2023-02-28T09:48:41;16.00;;;11.97;;
7412;SDS011;3748;48.136;11.538;2023-02-28T09:51:12;20.63;;;11.43;;
7412;SDS011;3748;48.136;11.538;2023-02-28T09:53:42;16.60;;;12.00;;
7412;SDS011;3748;48.136;11.538;2023-02-28T09:56:10;21.17;;;11.60;;
7412;SDS011;3748;48.136;11.538;2023-02-28T09:58:40;17.27;;;11.20;;
7412;SDS011;3748;48.136;11.538;2023-02-28T10:01:09;18.97;;;11.33;;
7412;SDS011;3748;48.136;11.538;2023-02-28T10:03:39;15.00;;;10.53;;
7412;SDS011;3748;48.136;11.538;2023-02-28T10:06:07;21.90;;;10.90;;
7412;SDS011;3748;48.136;11.538;2023-02-28T10:08:39;21.73;;;12.07;;
7412;SDS011;3748;48.136;11.538;2023-02-28T10:11:10;16.30;;;11.90;;
7412;SDS011;3748;48.136;11.538;2023-02-28T10:13:41;21.17;;;11.60;;
7412;SDS011;3748;48.136;11.538;2023-02-28T10:16:15;24.03;;;12.17;;
7412;SDS011;3748;48.136;11.538;2023-02-28T10:18:46;17.50;;;11.50;;
7412;SDS011;3748;48.136;11.538;2023-02-28T10:21:15;19.03;;;11.37;;
7412;SDS011;3748;48.136;11.538;2023-02-28T10:23:44;14.70;;;10.07;;
7412;SDS011;3748;48.136;11.538;2023-02-28T10:26:13;19.10;;;10.97;;
7412;SDS011;3748;48.136;11.538;2023-02-28T10:28:42;16.50;;;8.80;;
7412;SDS011;3748;48.136;11.538;2023-02-28T10:31:10;15.83;;;10.37;;
7412;SDS011;3748;48.136;11.538;2023-02-28T10:33:38;16.67;;;10.97;;
7412;SDS011;3748;48.136;11.538;2023-02-28T10:36:05;18.77;;;10.93;;
7412;SDS011;3748;48.136;11.538;2023-02-28T10:38:33;20.47;;;12.97;;
7412;SDS011;3748;48.136;11.538;2023-02-28T10:41:03;18.63;;;12.00;;
7412;SDS011;3748;48.136;11.538;2023-02-28T10:43:31;13.67;;;10.80;;
7412;SDS011;3748;48.136;11.538;2023-02-28T10:46:01;16.87;;;11.43;;
7412;SDS011;3748;48.136;11.538;2023-02-28T10:48:36;15.90;;;11.13;;
7412;SDS011;3748;48.136;11.538;2023-02-28T10:51:04;18.63;;;11.27;;
7412;SDS011;3748;48.136;11.538;2023-02-28T10:53:33;19.50;;;12.10;;
7412;SDS011;3748;48.136;11.538;2023-02-28T10:56:01;18.20;;;10.43;;
7412;SDS011;3748;48.136;11.538;2023-02-28T10:58:30;15.50;;;10.50;;
7412;SDS011;3748;48.136;11.538;2023-02-28T11:00:58;15.87;;;10.20;;
7412;SDS011;3748;48.136;11.538;2023-02-28T11:03:30;12.30;;;10.43;;
7412;SDS011;3748;48.136;11.538;2023-02-28T11:05:58;17.40;;;11.00;;
7412;SDS011;3748;48.136;11.538;2023-02-28T11:08:25;14.70;;;11.00;;
7412;SDS011;3748;48.136;11.538;2023-02-28T11:10:56;11.63;;;10.13;;
7412;SDS011;3748;48.136;11.538;2023-02-28T11:13:32;15.37;;;10.80;;
7412;SDS011;3748;48.136;11.538;2023-02-28T11:16:00;14.93;;;11.13;;
7412;SDS011;3748;48.136;11.538;2023-02-28T11:18:30;19.57;;;12.43;;
7412;SDS011;3748;48.136;11.538;2023-02-28T11:21:01;12.93;;;10.37;;
7412;SDS011;3748;48.136;11.538;2023-02-28T11:23:29;14.87;;;11.07;;
7412;SDS011;3748;48.136;11.538;2023-02-28T11:25:58;14.93;;;11.53;;
7412;SDS011;3748;48.136;11.538;2023-02-28T11:28:27;14.10;;;11.40;;
7412;SDS011;3748;48.136;11.538;2023-02-28T11:30:59;14.37;;;11.23;;
7412;SDS011;3748;48.136;11.538;2023-02-28T11:33:27;15.50;;;11.07;;
7412;SDS011;3748;48.136;11.538;2023-02-28T11:35:57;21.57;;;13.00;;
7412;SDS011;3748;48.136;11.538;2023-02-28T11:38:25;15.80;;;11.13;;
7412;SDS011;3748;48.136;11.538;2023-02-28T11:40:57;14.83;;;11.17;;
7412;SDS011;3748;48.136;11.538;2023-02-28T11:43:37;17.10;;;10.87;;
7412;SDS011;3748;48.136;11.538;2023-02-28T11:46:07;21.37;;;12.27;;
7412;SDS011;3748;48.136;11.538;2023-02-28T11:48:39;20.43;;;12.90;;
7412;SDS011;3748;48.136;11.538;2023-02-28T11:51:12;16.77;;;11.40;;
7412;SDS011;3748;48.136;11.538;2023-02-28T11:53:48;14.57;;;11.37;;
7412;SDS011;3748;48.136;11.538;2023-02-28T11:56:18;12.83;;;11.13;;
7412;SDS011;3748;48.136;11.538;2023-02-28T11:58:49;15.50;;;12.20;;
7412;SDS011;3748;48.136;11.538;2023-02-28T12:01:23;20.33;;;12.30;;
7412;SDS011;3748;48.136;11.538;2023-02-28T12:03:57;14.10;;;10.50;;
7412;SDS011;3748;48.136;11.538;2023-02-28T12:06:28;14.67;;;10.23;;
7412;SDS011;3748;48.136;11.538;2023-02-28T12:09:02;15.00;;;11.33;;
7412;SDS011;3748;48.136;11.538;2023-02-28T12:11:38;15.07;;;12.37;;
7412;SDS011;3748;48.136;11.538;2023-02-28T12:14:14;15.77;;;10.50;;
7412;SDS011;3748;48.136;11.538;2023-02-28T12:16:49;23.60;;;12.73;;
7412;SDS011;3748;48.136;11.538;2023-02-28T12:19:21;17.50;;;12.60;;
7412;SDS011;3748;48.136;11.538;2023-02-28T12:21:58;15.67;;;11.37;;
7412;SDS011;3748;48.136;11.538;2023-02-28T12:24:39;13.30;;;11.00;;
7412;SDS011;3748;48.136;11.538;2023-02-28T12:27:12;15.83;;;11.53;;
7412;SDS011;3748;48.136;11.538;2023-02-28T12:29:42;13.47;;;11.60;;
7412;SDS011;3748;48.136;11.538;2023-02-28T12:32:11;18.33;;;10.43;;
7412;SDS011;3748;48.136;11.538;2023-02-28T12:34:41;16.67;;;11.27;;
7412;SDS011;3748;48.136;11.538;2023-02-28T12:37:13;17.87;;;12.90;;
7412;SDS011;3748;48.136;11.538;2023-02-28T12:39:42;11.73;;;10.53;;
7412;SDS011;3748;48.136;11.538;2023-02-28T12:42:11;17.50;;;11.10;;
7412;SDS011;3748;48.136;11.538;2023-02-28T12:44:40;12.03;;;10.50;;
7412;SDS011;3748;48.136;11.538;2023-02-28T12:47:10;12.67;;;10.27;;
7412;SDS011;3748;48.136;11.538;2023-02-28T12:49:41;14.70;;;11.63;;
7412;SDS011;3748;48.136;11.538;2023-02-28T12:52:12;14.13;;;10.90;;
7412;SDS011;3748;48.136;11.538;2023-02-28T12:54:43;15.17;;;10.47;;
7412;SDS011;3748;48.136;11.538;2023-02-28T12:57:12;13.47;;;10.50;;
7412;SDS011;3748;48.136;11.538;2023-02-28T12:59:41;13.50;;;11.67;;
7412;SDS011;3748;48.136;11.538;2023-02-28T13:02:17;13.07;;;11.87;;
7412;SDS011;3748;48.136;11.538;2023-02-28T13:04:54;12.03;;;10.77;;
7412;SDS011;3748;48.136;11.538;2023-02-28T13:07:39;16.30;;;11.60;;
7412;SDS011;3748;48.136;11.538;2023-02-28T13:10:11;14.07;;;12.00;;
7412;SDS011;3748;48.136;11.538;2023-02-28T13:12:46;15.20;;;11.13;;
7412;SDS011;3748;48.136;11.538;2023-02-28T13:15:16;12.33;;;11.00;;
7412;SDS011;3748;48.136;11.538;2023-02-28T13:17:47;10.93;;;9.93;;
7412;SDS011;3748;48.136;11.538;2023-02-28T13:20:15;13.93;;;11.40;;
7412;SDS011;3748;48.136;11.538;2023-02-28T13:22:45;12.93;;;11.63;;
7412;SDS011;3748;48.136;11.538;2023-02-28T13:27:59;12.37;;;10.20;;
7412;SDS011;3748;48.136;11.538;2023-02-28T13:33:21;12.17;;;10.87;;
7412;SDS011;3748;48.136;11.538;2023-02-28T13:35:50;12.60;;;10.57;;
7412;SDS011;3748;48.136;11.538;2023-02-28T13:38:35;12.20;;;10.73;;
7412;SDS011;3748;48.136;11.538;2023-02-28T13:46:38;12.20;;;10.33;;
7412;SDS011;3748;48.136;11.538;2023-02-28T13:49:25;11.53;;;10.37;;
7412;SDS011;3748;48.136;11.538;2023-02-28T13:51:54;12.37;;;11.17;;
7412;SDS011;3748;48.136;11.538;2023-02-28T13:54:28;11.73;;;10.53;;
7412;SDS011;3748;48.136;11.538;2023-02-28T13:57:04;12.90;;;10.27;;
7412;SDS011;3748;48.136;11.538;2023-02-28T13:59:35;14.03;;;10.93;;
7412;SDS011;3748;48.136;11.538;2023-02-28T14:05:00;12.23;;;10.40;;
7412;SDS011;3748;48.136;11.538;2023-02-28T14:07:28;12.33;;;10.60;;
7412;SDS011;3748;48.136;11.538;2023-02-28T14:09:59;12.87;;;9.40;;
7412;SDS011;3748;48.136;11.538;2023-02-28T14:15:30;14.10;;;10.17;;
7412;SDS011;3748;48.136;11.538;2023-02-28T14:18:02;10.97;;;9.90;;
7412;SDS011;3748;48.136;11.538;2023-02-28T14:20:31;13.73;;;10.00;;
7412;SDS011;3748;48.136;11.538;2023-02-28T14:23:01;15.33;;;10.60;;
7412;SDS011;3748;48.136;11.538;2023-02-28T14:25:32;11.17;;;8.70;;
7412;SDS011;3748;48.136;11.538;2023-02-28T14:28:04;13.37;;;9.93;;
7412;SDS011;3748;48.136;11.538;2023-02-28T14:33:31;10.70;;;9.60;;
7412;SDS011;3748;48.136;11.538;2023-02-28T14:36:04;12.50;;;10.50;;
7412;SDS011;3748;48.136;11.538;2023-02-28T14:38:33;11.23;;;9.43;;
7412;SDS011;3748;48.136;11.538;2023-02-28T14:41:04;11.97;;;10.63;;
7412;SDS011;3748;48.136;11.538;2023-02-28T14:43:33;12.70;;;11.30;;
7412;SDS011;3748;48.136;11.538;2023-02-28T14:46:00;10.87;;;9.70;;
7412;SDS011;3748;48.136;11.538;2023-02-28T14:48:28;11.23;;;10.13;;
7412;SDS011;3748;48.136;11.538;2023-02-28T14:50:56;10.83;;;9.67;;
7412;SDS011;3748;48.136;11.538;2023-02-28T14:53:24;14.83;;;10.80;;
7412;SDS011;3748;48.136;11.538;2023-02-28T14:55:52;15.80;;;11.20;;
7412;SDS011;3748;48.136;11.538;2023-02-28T14:58:23;12.63;;;10.13;;
7412;SDS011;3748;48.136;11.538;2023-02-28T15:00:51;10.70;;;9.60;;
7412;SDS011;3748;48.136;11.538;2023-02-28T15:03:19;12.50;;;10.30;;
7412;SDS011;3748;48.136;11.538;2023-02-28T15:05:53;15.00;;;10.70;;
7412;SDS011;3748;48.136;11.538;2023-02-28T15:08:20;15.43;;;11.10;;
7412;SDS011;3748;48.136;11.538;2023-02-28T15:10:51;14.97;;;10.43;;
7412;SDS011;3748;48.136;11.538;2023-02-28T15:13:19;13.23;;;11.00;;
7412;SDS011;3748;48.136;11.538;2023-02-28T15:15:49;14.80;;;9.83;;
7412;SDS011;3748;48.136;11.538;2023-02-28T15:18:22;11.70;;;10.50;;